»·PEaware :: ASA2 KPDX-KGEG

ASA2 :: KPDX-KGEG

FLIGHT INFORMATION

Flight Status: Arrived
Operator:
Alaska Airlines
More flights by this operator :: More flights under this callsign
Pilot: Steve F. (26981)
Aircraft: BOEING 737-800
(B738)
More flights by this aircraft type
Origin: KPDX Portland Intl
United States
Destination: KGEG Spokane Intl
United States
More flights between these airports :: More routes between these airports
Route: LAVAA6 LAVAA PAPPS ZOOMR ZOOMR1
File this flight plan on PilotEdge
Remarks:
Altitude:
(Current/Filed)
27,000ft
Speed:
(Current/Filed)
430kts
Departed: 12-Jul-20 01:44 PM
Arrived: 12-Jul-20 02:25 PM
Distance/Time
Traveled:
242nm/0:41
Distance/Time
To Go:
Arrived

Flight Plot

Page will automatically refresh every two minutes.


Map Options




Map Legend


Flown Route
Filed Route
Departure Airport
Arrival Airport
Navaid (VOR, NDB)
Fix

Horizontal Profiles

Position Reports

Time Latitude Longitude Heading Altitude Ground
Speed
12-Jul-20 13:25 45.588628 -122.596389 30 38ft 0kts
12-Jul-20 13:26 45.588628 -122.596389 30 38ft 0kts
12-Jul-20 13:27 45.588628 -122.596389 30 38ft 0kts
12-Jul-20 13:28 45.588628 -122.596389 30 38ft 0kts
12-Jul-20 13:29 45.588628 -122.596389 30 38ft 0kts
12-Jul-20 13:30 45.588628 -122.596389 30 38ft 0kts
12-Jul-20 13:31 45.588628 -122.596389 30 38ft 0kts
12-Jul-20 13:32 45.588377 -122.596530 7 38ft 2kts
12-Jul-20 13:33 45.588088 -122.596472 335 38ft 0kts
12-Jul-20 13:34 45.588089 -122.596473 335 38ft 0kts
12-Jul-20 13:35 45.588090 -122.596474 335 38ft 0kts
12-Jul-20 13:36 45.588155 -122.596880 230 38ft 3kts
12-Jul-20 13:37 45.588573 -122.599060 297 38ft 10kts
12-Jul-20 13:38 45.590025 -122.601868 26 38ft 7kts
12-Jul-20 13:39 45.592030 -122.601196 41 38ft 7kts
12-Jul-20 13:40 45.594349 -122.597757 45 38ft 0kts
12-Jul-20 13:41 45.594698 -122.597200 47 38ft 0kts
12-Jul-20 13:42 45.594846 -122.596970 47 38ft 7kts
12-Jul-20 13:43 45.586005 -122.573014 119 74ft 183kts
12-Jul-20 13:44 45.567172 -122.490449 95 2796ft 256kts
12-Jul-20 13:45 45.552250 -122.385579 104 6076ft 282kts
12-Jul-20 13:46 45.570417 -122.280616 49 9290ft 296kts
12-Jul-20 13:47 45.629042 -122.190248 43 12002ft 329kts
12-Jul-20 13:48 45.681268 -122.063894 64 13477ft 402kts
12-Jul-20 13:49 45.728227 -121.913422 63 16127ft 426kts
12-Jul-20 13:50 45.781238 -121.757146 60 18595ft 445kts
12-Jul-20 13:51 45.839034 -121.595926 60 20816ft 463kts
12-Jul-20 13:52 45.898357 -121.428194 61 22804ft 478kts
12-Jul-20 13:53 45.959989 -121.255097 61 24467ft 494kts
12-Jul-20 13:54 46.022794 -121.076447 61 25931ft 510kts
12-Jul-20 13:55 46.087225 -120.891500 61 27113ft 523kts
12-Jul-20 13:56 46.151996 -120.704170 61 27120ft 520kts
12-Jul-20 13:57 46.216199 -120.517123 61 27114ft 521kts
12-Jul-20 13:58 46.280176 -120.329397 61 27101ft 521kts
12-Jul-20 13:59 46.344281 -120.141061 62 27096ft 522kts
12-Jul-20 14:00 46.407585 -119.951802 62 27092ft 523kts
12-Jul-20 14:01 46.489211 -119.780702 43 27089ft 514kts
12-Jul-20 14:02 46.587734 -119.630226 42 27086ft 515kts
12-Jul-20 14:03 46.686245 -119.478128 42 27085ft 515kts
12-Jul-20 14:04 46.783331 -119.328325 42 24650ft 504kts
12-Jul-20 14:05 46.879380 -119.178575 42 21948ft 498kts
12-Jul-20 14:06 46.971590 -119.033860 43 19248ft 475kts
12-Jul-20 14:07 47.059203 -118.895581 43 16834ft 451kts
12-Jul-20 14:08 47.142807 -118.762983 44 14647ft 434kts
12-Jul-20 14:09 47.223365 -118.634879 44 13145ft 418kts
12-Jul-20 14:10 47.301702 -118.509495 45 13011ft 419kts
12-Jul-20 14:11 47.373154 -118.374117 57 13014ft 422kts
12-Jul-20 14:12 47.430701 -118.234807 55 12821ft 369kts
12-Jul-20 14:13 47.482948 -118.115025 55 12454ft 330kts
12-Jul-20 14:14 47.532035 -118.003122 55 11472ft 318kts
12-Jul-20 14:15 47.580049 -117.895944 54 10452ft 307kts
12-Jul-20 14:16 47.626927 -117.793346 55 9181ft 294kts
12-Jul-20 14:17 47.672823 -117.694759 54 7774ft 287kts
12-Jul-20 14:18 47.716751 -117.600819 55 6937ft 260kts
12-Jul-20 14:19 47.754692 -117.518731 55 6774ft 214kts
12-Jul-20 14:20 47.748403 -117.449493 155 5753ft 193kts
12-Jul-20 14:21 47.698541 -117.439009 182 5040ft 161kts
12-Jul-20 14:22 47.663567 -117.469659 228 3784ft 155kts
12-Jul-20 14:23 47.635406 -117.511993 226 2518ft 135kts
12-Jul-20 14:24 47.620691 -117.534233 237 2380ft 13kts
12-Jul-20 14:25 47.619961 -117.538418 292 2380ft 16kts
12-Jul-20 14:26 47.623722 -117.536680 317 2380ft 11kts
12-Jul-20 14:27 47.624955 -117.537626 37 2380ft 0kts
12-Jul-20 14:28 47.624955 -117.537626 37 2380ft 0kts

Navigation Log

Ident Type
Flight plan parsing failed, navigation log unavailable